Hwy 51 at Exposition Atmospheric Data: 09/30/2022 Summary  Detailed Graphs  Station List

  Temperature     Wind Precipitation Visibility
Timestamp Air Wet
Bulb
Dew-
point
24-hr
Max
24-hr
Min
Relative
Humidity
Atmospheric
Pressure
Avg
Speed
Avg
Dir
Spot
Speed
Spot
Dir
Max
Speed
Max
Dir
  Rate Situation Start End 1 hr 3 hr 6 hr 12 hr 24 hr   Situation
Date Time °F °F °F °F °F % in Hg mph ° mph ° mph ° Y/N in/hr text Date Time Date Time in in in in in mi text
09/30/2022 12:14 AM 68.90 60.26 54.86 88.52 59.18 61.0 Not Reported 1.12 N 2.01 NE 1.79 N No 0.000 No Precipitation 09/21/2022 03:36 PM 09/21/2022 03:41 PM 0.000 0.000 0.000 0.000 0.000 3.20 Clear
09/30/2022 12:29 AM 69.80 60.44 54.32 88.52 59.18 58.0 Not Reported 3.13 NE 2.91 NE 3.13 NE No 0.000 No Precipitation 09/21/2022 03:36 PM 09/21/2022 03:41 PM 0.000 0.000 0.000 0.000 0.000 3.28 Clear
09/30/2022 12:44 AM 67.82 59.54 54.32 88.52 59.18 62.0 Not Reported 1.12 N 1.34 N 1.79 N No 0.000 No Precipitation 09/21/2022 03:36 PM 09/21/2022 03:41 PM 0.000 0.000 0.000 0.000 0.000 3.33 Clear
09/30/2022 12:59 AM 66.74 59.18 54.14 88.52 59.18 64.0 Not Reported 0.00 N 0.00 E 1.57 N No 0.000 No Precipitation 09/21/2022 03:36 PM 09/21/2022 03:41 PM 0.000 0.000 0.000 0.000 0.000 3.13 Clear
09/30/2022 01:14 AM 64.40 59.00 55.58 88.52 59.18 73.0 Not Reported 0.45 SW 0.00 SW 1.57 SW No 0.000 No Precipitation 09/21/2022 03:36 PM 09/21/2022 03:41 PM 0.000 0.000 0.000 0.000 0.000 3.28 Clear
09/30/2022 01:29 AM 64.04 59.00 55.94 88.52 59.18 75.0 Not Reported 2.01 SW 2.24 SW 1.79 SW No 0.000 No Precipitation 09/21/2022 03:36 PM 09/21/2022 03:41 PM 0.000 0.000 0.000 0.000 0.000 3.15 Clear
09/30/2022 01:44 AM 65.12 59.54 56.12 88.52 59.18 73.0 Not Reported 1.34 W 2.24 SW 2.46 W No 0.000 No Precipitation 09/21/2022 03:36 PM 09/21/2022 03:41 PM 0.000 0.000 0.000 0.000 0.000 3.16 Clear
09/30/2022 01:59 AM 64.94 59.54 55.94 88.52 59.18 73.0 Not Reported 1.12 W 0.00 W 3.13 SW No 0.000 No Precipitation 09/21/2022 03:36 PM 09/21/2022 03:41 PM 0.000 0.000 0.000 0.000 0.000 3.09 Clear
09/30/2022 02:14 AM 64.76 59.00 55.40 88.52 59.18 72.0 Not Reported 0.00 NW 0.45 NW 1.57 W No 0.000 No Precipitation 09/21/2022 03:36 PM 09/21/2022 03:41 PM 0.000 0.000 0.000 0.000 0.000 3.21 Clear
09/30/2022 02:29 AM 65.12 59.18 55.40 88.52 59.18 71.0 Not Reported 0.00 NW 0.22 SW 1.34 N No 0.000 No Precipitation 09/21/2022 03:36 PM 09/21/2022 03:41 PM 0.000 0.000 0.000 0.000 0.000 3.16 Clear
09/30/2022 02:44 AM 61.88 58.28 55.94 88.52 59.18 81.0 Not Reported 1.79 SW 2.01 SW 2.24 SW No 0.000 No Precipitation 09/21/2022 03:36 PM 09/21/2022 03:41 PM 0.000 0.000 0.000 0.000 0.000 3.04 Clear
09/30/2022 02:59 AM 61.70 58.28 56.12 88.52 59.18 82.0 Not Reported 0.00 SE 1.12 E 3.36 S No 0.000 No Precipitation 09/21/2022 03:36 PM 09/21/2022 03:41 PM 0.000 0.000 0.000 0.000 0.000 3.12 Clear
09/30/2022 03:14 AM 60.98 57.38 55.04 88.52 59.18 81.0 Not Reported 2.46 S 3.58 S 2.91 S No 0.000 No Precipitation 09/21/2022 03:36 PM 09/21/2022 03:41 PM 0.000 0.000 0.000 0.000 0.000 3.09 Clear
09/30/2022 03:29 AM 62.42 58.28 55.76 88.52 59.18 79.0 Not Reported 0.45 SW 0.00 SW 3.58 S No 0.000 No Precipitation 09/21/2022 03:36 PM 09/21/2022 03:41 PM 0.000 0.000 0.000 0.000 0.000 3.17 Clear
09/30/2022 03:44 AM 61.88 58.28 55.94 88.52 59.18 81.0 Not Reported 1.34 W 2.01 W 1.79 W No 0.000 No Precipitation 09/21/2022 03:36 PM 09/21/2022 03:41 PM 0.000 0.000 0.000 0.000 0.000 3.07 Clear
09/30/2022 03:59 AM 61.34 57.74 55.40 88.52 59.18 81.0 Not Reported 0.22 W 0.67 W 2.24 SW No 0.000 No Precipitation 09/21/2022 03:36 PM 09/21/2022 03:41 PM 0.000 0.000 0.000 0.000 0.000 3.09 Clear
09/30/2022 04:14 AM 61.16 57.56 55.22 88.52 59.18 81.0 Not Reported 0.45 SW 1.57 W 1.34 W No 0.000 No Precipitation 09/21/2022 03:36 PM 09/21/2022 03:41 PM 0.000 0.000 0.000 0.000 0.000 2.99 Clear
09/30/2022 04:29 AM 60.26 57.02 55.04 88.52 59.18 83.0 Not Reported 0.22 S 3.13 W 1.79 W No 0.000 No Precipitation 09/21/2022 03:36 PM 09/21/2022 03:41 PM 0.000 0.000 0.000 0.000 0.000 2.86 Clear
09/30/2022 04:44 AM 59.90 57.20 55.40 88.52 59.18 85.0 Not Reported 0.00 N 0.00 S 1.12 E No 0.000 No Precipitation 09/21/2022 03:36 PM 09/21/2022 03:41 PM 0.000 0.000 0.000 0.000 0.000 3.00 Clear
09/30/2022 04:59 AM 59.18 56.84 55.22 88.52 59.18 87.0 Not Reported 0.67 SW 0.00 SE 1.79 SW No 0.000 No Precipitation 09/21/2022 03:36 PM 09/21/2022 03:41 PM 0.000 0.000 0.000 0.000 0.000 3.03 Clear
09/30/2022 05:14 AM 59.54 57.02 55.22 88.52 59.18 86.0 Not Reported 0.89 W 1.57 SW 1.57 SW No 0.000 No Precipitation 09/21/2022 03:36 PM 09/21/2022 03:41 PM 0.000 0.000 0.000 0.000 0.000 2.91 Clear
09/30/2022 05:29 AM 60.44 57.20 55.22 88.52 59.18 83.0 Not Reported 0.45 W 0.67 SW 1.57 SW No 0.000 No Precipitation 09/21/2022 03:36 PM 09/21/2022 03:41 PM 0.000 0.000 0.000 0.000 0.000 3.15 Clear
09/30/2022 05:44 AM 60.08 56.66 54.50 88.52 59.18 82.0 Not Reported 1.57 E 1.12 W 2.68 E No 0.000 No Precipitation 09/21/2022 03:36 PM 09/21/2022 03:41 PM 0.000 0.000 0.000 0.000 0.000 2.42 Clear
09/30/2022 05:59 AM 59.90 56.12 53.60 88.52 59.18 80.0 Not Reported 0.67 E 1.12 SW 1.79 E No 0.000 No Precipitation 09/21/2022 03:36 PM 09/21/2022 03:41 PM 0.000 0.000 0.000 0.000 0.000 2.81 Clear
09/30/2022 06:14 AM 59.90 56.12 53.60 88.52 59.18 80.0 Not Reported 0.45 SE 0.00 SE 1.79 SW No 0.000 No Precipitation 09/21/2022 03:36 PM 09/21/2022 03:41 PM 0.000 0.000 0.000 0.000 0.000 3.06 Clear
09/30/2022 06:29 AM 59.00 56.12 54.14 88.52 59.18 84.0 Not Reported 0.22 SW 0.45 S 1.79 SW No 0.000 No Precipitation 09/21/2022 03:36 PM 09/21/2022 03:41 PM 0.000 0.000 0.000 0.000 0.000 3.15 Clear
09/30/2022 06:44 AM 59.54 56.48 54.32 88.52 59.18 83.0 Not Reported 1.34 W 1.79 W 3.80 SW No 0.000 No Precipitation 09/21/2022 03:36 PM 09/21/2022 03:41 PM 0.000 0.000 0.000 0.000 0.000 2.80 Clear
09/30/2022 06:59 AM 60.08 56.66 54.50 88.52 59.18 82.0 Not Reported 0.67 W 0.67 N 2.46 SW No 0.000 No Precipitation 09/21/2022 03:36 PM 09/21/2022 03:41 PM 0.000 0.000 0.000 0.000 0.000 3.02 Clear
09/30/2022 07:14 AM 59.36 56.48 54.50 88.52 59.18 84.0 Not Reported 2.01 NW 2.46 NW 2.46 W No 0.000 No Precipitation 09/21/2022 03:36 PM 09/21/2022 03:41 PM 0.000 0.000 0.000 0.000 0.000 2.86 Clear
09/30/2022 07:29 AM 59.90 56.30 53.96 88.52 59.18 81.0 Not Reported 2.24 NW 2.24 N 2.91 N No 0.000 No Precipitation 09/21/2022 03:36 PM 09/21/2022 03:41 PM 0.000 0.000 0.000 0.000 0.000 2.86 Clear
09/30/2022 07:44 AM 62.42 57.38 53.96 88.52 59.18 74.0 Not Reported 1.57 N 1.12 NE 2.46 NW No 0.000 No Precipitation 09/21/2022 03:36 PM 09/21/2022 03:41 PM 0.000 0.000 0.000 0.000 0.000 2.93 Clear
09/30/2022 07:59 AM 62.60 57.56 54.14 88.52 59.18 74.0 Not Reported 1.57 W 0.89 S 2.01 NE No 0.000 No Precipitation 09/21/2022 03:36 PM 09/21/2022 03:41 PM 0.000 0.000 0.000 0.000 0.000 2.71 Clear
09/30/2022 08:14 AM 64.22 58.46 54.50 88.52 59.18 71.0 Not Reported 2.46 N 3.36 N 3.36 NE No 0.000 No Precipitation 09/21/2022 03:36 PM 09/21/2022 03:41 PM 0.000 0.000 0.000 0.000 0.000 2.66 Clear
09/30/2022 08:29 AM 65.66 59.00 54.68 88.52 59.18 68.0 Not Reported 1.57 N 1.57 W 3.58 N No 0.000 No Precipitation 09/21/2022 03:36 PM 09/21/2022 03:41 PM 0.000 0.000 0.000 0.000 0.000 2.93 Clear
09/30/2022 08:44 AM 66.92 59.54 54.68 88.52 59.18 65.0 Not Reported 1.79 N 1.12 E 3.13 NE No 0.000 No Precipitation 09/21/2022 03:36 PM 09/21/2022 03:41 PM 0.000 0.000 0.000 0.000 0.000 3.05 Clear
09/30/2022 08:59 AM 68.90 60.26 54.86 88.52 59.18 61.0 Not Reported 0.00 NE 1.34 SE 1.79 NE No 0.000 No Precipitation 09/21/2022 03:36 PM 09/21/2022 03:41 PM 0.000 0.000 0.000 0.000 0.000 2.86 Clear
09/30/2022 09:14 AM 69.08 60.44 55.04 88.52 59.18 61.0 Not Reported 1.12 SE 1.34 SE 1.79 E No 0.000 No Precipitation 09/21/2022 03:36 PM 09/21/2022 03:41 PM 0.000 0.000 0.000 0.000 0.000 3.19 Clear
09/30/2022 09:29 AM 70.52 61.16 55.40 88.52 59.18 59.0 Not Reported 1.79 NW 1.34 SW 1.79 SE No 0.000 No Precipitation 09/21/2022 03:36 PM 09/21/2022 03:41 PM 0.000 0.000 0.000 0.000 0.000 2.40 Clear
09/30/2022 09:44 AM 71.24 61.52 55.58 88.52 59.18 58.0 Not Reported 1.34 N 0.45 NW 3.13 W No 0.000 No Precipitation 09/21/2022 03:36 PM 09/21/2022 03:41 PM 0.000 0.000 0.000 0.000 0.000 2.58 Clear
09/30/2022 09:59 AM 72.68 60.98 53.42 88.52 59.18 51.0 Not Reported 1.79 NE 2.01 N 2.68 NW No 0.000 No Precipitation 09/21/2022 03:36 PM 09/21/2022 03:41 PM 0.000 0.000 0.000 0.000 0.000 2.86 Clear
09/30/2022 10:14 AM 73.94 60.98 52.34 88.52 59.18 47.0 Not Reported 2.68 NE 0.89 SE 4.03 N No 0.000 No Precipitation 09/21/2022 03:36 PM 09/21/2022 03:41 PM 0.000 0.000 0.000 0.000 0.000 3.11 Clear
09/30/2022 10:29 AM 75.02 60.62 50.90 88.52 59.18 43.0 Not Reported 1.57 E 1.79 E 4.47 NE No 0.000 No Precipitation 09/21/2022 03:36 PM 09/21/2022 03:41 PM 0.000 0.000 0.000 0.000 0.000 4.15 Clear
09/30/2022 10:44 AM 76.28 60.80 50.18 88.52 59.18 40.0 Not Reported 4.03 N 3.13 N 5.14 N No 0.000 No Precipitation 09/21/2022 03:36 PM 09/21/2022 03:41 PM 0.000 0.000 0.000 0.000 0.000 3.55 Clear
09/30/2022 10:59 AM 77.36 61.34 50.36 88.52 59.18 39.0 Not Reported 3.13 NW 1.79 W 6.04 N No 0.000 No Precipitation 09/21/2022 03:36 PM 09/21/2022 03:41 PM 0.000 0.000 0.000 0.000 0.000 2.82 Clear
09/30/2022 11:14 AM 78.98 61.52 49.64 88.52 59.18 36.0 Not Reported 1.57 E 2.01 N 5.59 NW No 0.000 No Precipitation 09/21/2022 03:36 PM 09/21/2022 03:41 PM 0.000 0.000 0.000 0.000 0.000 2.94 Clear
09/30/2022 11:29 AM 79.70 62.06 50.36 88.52 59.18 36.0 Not Reported 2.24 N 0.67 SE 4.92 NW No 0.000 No Precipitation 09/21/2022 03:36 PM 09/21/2022 03:41 PM 0.000 0.000 0.000 0.000 0.000 3.37 Clear
09/30/2022 11:44 AM 79.52 61.88 50.18 88.52 59.18 36.0 Not Reported 4.25 NW 0.22 NW 5.37 W No 0.000 No Precipitation 09/21/2022 03:36 PM 09/21/2022 03:41 PM 0.000 0.000 0.000 0.000 0.000 3.32 Clear
09/30/2022 11:59 AM 80.06 62.06 49.82 88.52 59.18 35.0 Not Reported 4.03 NW 2.01 NW 3.36 NE No 0.000 No Precipitation 09/21/2022 03:36 PM 09/21/2022 03:41 PM 0.000 0.000 0.000 0.000 0.000 2.67 Clear
09/30/2022 12:14 PM 81.32 62.96 51.08 88.52 59.18 35.0 Not Reported 3.13 W 3.80 W 4.47 S No 0.000 No Precipitation 09/21/2022 03:36 PM 09/21/2022 03:41 PM 0.000 0.000 0.000 0.000 0.000 3.30 Clear
09/30/2022 12:29 PM 82.76 63.32 50.72 88.52 59.18 33.0 Not Reported 2.91 NW 3.13 NW 3.80 W No 0.000 No Precipitation 09/21/2022 03:36 PM 09/21/2022 03:41 PM 0.000 0.000 0.000 0.000 0.000 3.47 Clear
09/30/2022 12:44 PM 83.66 63.68 50.72 88.52 59.18 32.0 Not Reported 2.46 W 4.25 W 4.25 NW No 0.000 No Precipitation 09/21/2022 03:36 PM 09/21/2022 03:41 PM 0.000 0.000 0.000 0.000 0.000 3.54 Clear
09/30/2022 12:59 PM 84.74 63.68 49.82 88.52 59.18 30.0 Not Reported 2.24 NE 1.12 SE 6.71 W No 0.000 No Precipitation 09/21/2022 03:36 PM 09/21/2022 03:41 PM 0.000 0.000 0.000 0.000 0.000 2.93 Clear
09/30/2022 01:14 PM 85.28 63.68 49.46 88.52 59.18 29.0 Not Reported 4.03 N 5.14 N 7.83 N No 0.000 No Precipitation 09/21/2022 03:36 PM 09/21/2022 03:41 PM 0.000 0.000 0.000 0.000 0.000 2.85 Clear
09/30/2022 01:29 PM 85.46 63.86 49.46 88.52 59.18 29.0 Not Reported 4.25 NE 2.24 NE 7.38 NE No 0.000 No Precipitation 09/21/2022 03:36 PM 09/21/2022 03:41 PM 0.000 0.000 0.000 0.000 0.000 3.01 Clear
09/30/2022 01:44 PM 87.98 64.76 49.82 88.52 59.18 27.0 Not Reported 1.79 NE 5.14 NE 5.37 NW No 0.000 No Precipitation 09/21/2022 03:36 PM 09/21/2022 03:41 PM 0.000 0.000 0.000 0.000 0.000 3.35 Clear
09/30/2022 01:59 PM 87.80 64.58 49.64 88.52 59.18 27.0 Not Reported 4.03 N 6.26 NW 6.49 N No 0.000 No Precipitation 09/21/2022 03:36 PM 09/21/2022 03:41 PM 0.000 0.000 0.000 0.000 0.000 3.78 Clear
09/30/2022 02:14 PM 87.26 64.76 50.18 88.52 59.18 28.0 Not Reported 4.03 N 2.01 SE 5.59 N No 0.000 No Precipitation 09/21/2022 03:36 PM 09/21/2022 03:41 PM 0.000 0.000 0.000 0.000 0.000 3.21 Clear
09/30/2022 02:29 PM 88.34 64.58 49.10 88.52 59.18 26.0 Not Reported 3.36 NW 4.03 N 5.37 N No 0.000 No Precipitation 09/21/2022 03:36 PM 09/21/2022 03:41 PM 0.000 0.000 0.000 0.000 0.000 3.87 Clear
09/30/2022 02:44 PM 89.96 65.30 49.46 88.52 59.18 25.0 Not Reported 2.46 N 4.92 NE 6.49 NE No 0.000 No Precipitation 09/21/2022 03:36 PM 09/21/2022 03:41 PM 0.000 0.000 0.000 0.000 0.000 3.78 Clear
09/30/2022 02:59 PM 89.78 65.12 49.28 88.52 59.18 25.0 Not Reported 2.01 NE 0.00 NE 6.71 NW No 0.000 No Precipitation 09/21/2022 03:36 PM 09/21/2022 03:41 PM 0.000 0.000 0.000 0.000 0.000 3.84 Clear
09/30/2022 03:14 PM 89.78 65.12 49.28 88.52 59.18 25.0 Not Reported 1.34 NW 2.01 NW 7.16 N No 0.000 No Precipitation 09/21/2022 03:36 PM 09/21/2022 03:41 PM 0.000 0.000 0.000 0.000 0.000 3.24 Clear
09/30/2022 03:29 PM 90.14 65.48 49.46 88.52 59.18 25.0 Not Reported 3.36 NE 6.26 N 6.26 N No 0.000 No Precipitation 09/21/2022 03:36 PM 09/21/2022 03:41 PM 0.000 0.000 0.000 0.000 0.000 3.17 Clear
09/30/2022 03:44 PM 89.78 65.12 49.28 88.52 59.18 25.0 Not Reported 5.37 N 4.25 N 6.71 N No 0.000 No Precipitation 09/21/2022 03:36 PM 09/21/2022 03:41 PM 0.000 0.000 0.000 0.000 0.000 3.91 Clear
09/30/2022 03:59 PM 91.04 65.66 49.10 88.52 59.18 24.0 Not Reported 1.79 N 5.59 NE 8.05 N No 0.000 No Precipitation 09/21/2022 03:36 PM 09/21/2022 03:41 PM 0.000 0.000 0.000 0.000 0.000 3.63 Clear
09/30/2022 04:14 PM 89.24 64.40 47.66 88.52 59.18 24.0 Not Reported 4.03 N 1.79 NE 7.16 NE No 0.000 No Precipitation 09/21/2022 03:36 PM 09/21/2022 03:41 PM 0.000 0.000 0.000 0.000 0.000 3.45 Clear
09/30/2022 04:29 PM 90.50 64.76 47.66 88.52 59.18 23.0 Not Reported 2.91 NE 6.49 NE 8.28 NE No 0.000 No Precipitation 09/21/2022 03:36 PM 09/21/2022 03:41 PM 0.000 0.000 0.000 0.000 0.000 3.64 Clear
09/30/2022 04:44 PM 91.04 65.66 49.10 88.52 59.18 24.0 Not Reported 3.13 NE 0.45 SE 7.83 NE No 0.000 No Precipitation 09/21/2022 03:36 PM 09/21/2022 03:41 PM 0.000 0.000 0.000 0.000 0.000 3.83 Clear
09/30/2022 04:59 PM 91.04 65.12 48.02 88.52 59.18 23.0 Not Reported 1.57 NE 2.68 E 8.72 N No 0.000 No Precipitation 09/21/2022 03:36 PM 09/21/2022 03:41 PM 0.000 0.000 0.000 0.000 0.000 3.83 Clear
09/30/2022 05:14 PM 91.22 65.66 49.28 91.58 58.64 24.0 Not Reported 2.91 N 4.25 N 6.26 N No 0.000 No Precipitation 09/21/2022 03:36 PM 09/21/2022 03:41 PM 0.000 0.000 0.000 0.000 0.000 3.58 Clear
09/30/2022 05:29 PM 90.86 65.48 49.10 91.58 58.64 24.0 Not Reported 3.80 NE 4.03 NE 6.04 NE No 0.000 No Precipitation 09/21/2022 03:36 PM 09/21/2022 03:41 PM 0.000 0.000 0.000 0.000 0.000 3.34 Clear
09/30/2022 05:44 PM 89.96 64.94 48.20 91.58 58.64 24.0 Not Reported 4.70 NE 5.37 N 7.61 NE No 0.000 No Precipitation 09/21/2022 03:36 PM 09/21/2022 03:41 PM 0.000 0.000 0.000 0.000 0.000 3.54 Clear
09/30/2022 05:59 PM 90.32 65.12 48.56 91.58 58.64 24.0 Not Reported 3.36 N 3.80 N 5.59 N No 0.000 No Precipitation 09/21/2022 03:36 PM 09/21/2022 03:41 PM 0.000 0.000 0.000 0.000 0.000 3.55 Clear
09/30/2022 06:14 PM 88.88 64.58 48.38 91.58 58.64 25.0 Not Reported 3.58 NE 3.36 NE 6.04 N No 0.000 No Precipitation 09/21/2022 03:36 PM 09/21/2022 03:41 PM 0.000 0.000 0.000 0.000 0.000 3.77 Clear
09/30/2022 06:29 PM 88.52 64.76 49.28 91.58 58.64 26.0 Not Reported 1.79 NE 0.45 N 4.92 NE No 0.000 No Precipitation 09/21/2022 03:36 PM 09/21/2022 03:41 PM 0.000 0.000 0.000 0.000 0.000 3.55 Clear
09/30/2022 06:44 PM 87.26 64.22 49.10 91.58 58.64 27.0 Not Reported 3.58 NE 2.68 NW 4.25 NE No 0.000 No Precipitation 09/21/2022 03:36 PM 09/21/2022 03:41 PM 0.000 0.000 0.000 0.000 0.000 3.47 Clear
09/30/2022 06:59 PM 86.90 64.04 48.92 91.58 58.64 27.0 Not Reported 2.91 NE 3.36 S 5.14 NE No 0.000 No Precipitation 09/21/2022 03:36 PM 09/21/2022 03:41 PM 0.000 0.000 0.000 0.000 0.000 3.39 Clear
09/30/2022 07:14 PM 84.38 63.50 49.46 91.58 58.64 30.0 Not Reported 3.13 NE 1.12 E 4.47 E No 0.000 No Precipitation 09/21/2022 03:36 PM 09/21/2022 03:41 PM 0.000 0.000 0.000 0.000 0.000 3.49 Clear
09/30/2022 07:29 PM 83.12 63.32 50.18 91.58 58.64 32.0 Not Reported 1.57 E 1.79 E 2.91 NE No 0.000 No Precipitation 09/21/2022 03:36 PM 09/21/2022 03:41 PM 0.000 0.000 0.000 0.000 0.000 3.24 Clear
09/30/2022 07:44 PM 81.86 63.32 51.44 91.58 58.64 35.0 Not Reported 0.00 SE 0.00 NW 2.46 E No 0.000 No Precipitation 09/21/2022 03:36 PM 09/21/2022 03:41 PM 0.000 0.000 0.000 0.000 0.000 3.19 Clear
09/30/2022 07:59 PM 81.14 62.78 50.90 91.58 58.64 35.0 Not Reported 1.12 NE 0.67 E 2.01 W No 0.000 No Precipitation 09/21/2022 03:36 PM 09/21/2022 03:41 PM 0.000 0.000 0.000 0.000 0.000 3.27 Clear
09/30/2022 08:14 PM 79.52 62.24 50.90 91.58 58.64 37.0 Not Reported 0.00 N 0.67 NE 1.79 S No 0.000 No Precipitation 09/21/2022 03:36 PM 09/21/2022 03:41 PM 0.000 0.000 0.000 0.000 0.000 3.21 Clear
09/30/2022 08:29 PM 79.34 62.24 50.72 91.58 58.64 37.0 Not Reported 0.45 W 0.00 W 2.24 SW No 0.000 No Precipitation 09/21/2022 03:36 PM 09/21/2022 03:41 PM 0.000 0.000 0.000 0.000 0.000 3.38 Clear
09/30/2022 08:44 PM 77.90 62.06 51.62 91.58 58.64 40.0 Not Reported 0.45 W 0.22 N 1.34 SW No 0.000 No Precipitation 09/21/2022 03:36 PM 09/21/2022 03:41 PM 0.000 0.000 0.000 0.000 0.000 3.29 Clear
09/30/2022 08:59 PM 75.74 61.52 52.16 91.58 58.64 44.0 Not Reported 0.00 W 0.00 W 1.79 SW No 0.000 No Precipitation 09/21/2022 03:36 PM 09/21/2022 03:41 PM 0.000 0.000 0.000 0.000 0.000 3.32 Clear
09/30/2022 09:14 PM 72.14 60.80 53.42 91.58 58.64 52.0 Not Reported 3.36 W 2.68 W 4.03 SW No 0.000 No Precipitation 09/21/2022 03:36 PM 09/21/2022 03:41 PM 0.000 0.000 0.000 0.000 0.000 3.31 Clear
09/30/2022 09:29 PM 74.66 61.52 53.06 91.58 58.64 47.0 Not Reported 1.57 W 1.12 SW 4.25 SW No 0.000 No Precipitation 09/21/2022 03:36 PM 09/21/2022 03:41 PM 0.000 0.000 0.000 0.000 0.000 3.20 Clear
09/30/2022 09:44 PM 73.58 61.52 53.78 91.58 58.64 50.0 Not Reported 1.79 W 2.24 SW 2.46 SW No 0.000 No Precipitation 09/21/2022 03:36 PM 09/21/2022 03:41 PM 0.000 0.000 0.000 0.000 0.000 3.30 Clear
09/30/2022 09:59 PM 73.76 60.80 52.16 91.58 58.64 47.0 Not Reported 0.89 W 2.01 W 3.36 W No 0.000 No Precipitation 09/21/2022 03:36 PM 09/21/2022 03:41 PM 0.000 0.000 0.000 0.000 0.000 3.05 Clear
09/30/2022 10:14 PM 73.22 60.62 52.34 91.58 58.64 48.0 Not Reported 1.57 W 2.01 W 2.46 W No 0.000 No Precipitation 09/21/2022 03:36 PM 09/21/2022 03:41 PM 0.000 0.000 0.000 0.000 0.000 3.41 Clear
09/30/2022 10:29 PM 70.34 59.90 52.88 91.58 58.64 54.0 Not Reported 0.00 SW 0.22 S 2.24 NW No 0.000 No Precipitation 09/21/2022 03:36 PM 09/21/2022 03:41 PM 0.000 0.000 0.000 0.000 0.000 3.27 Clear
09/30/2022 10:44 PM 68.72 59.00 52.34 91.58 58.64 56.0 Not Reported 1.57 S 2.01 S 2.01 S No 0.000 No Precipitation 09/21/2022 03:36 PM 09/21/2022 03:41 PM 0.000 0.000 0.000 0.000 0.000 3.38 Clear
09/30/2022 10:59 PM 68.36 58.64 51.98 91.58 58.64 56.0 Not Reported 1.12 S 2.01 S 2.46 S No 0.000 No Precipitation 09/21/2022 03:36 PM 09/21/2022 03:41 PM 0.000 0.000 0.000 0.000 0.000 3.46 Clear
09/30/2022 11:14 PM 68.36 58.82 52.52 91.58 58.64 57.0 Not Reported 2.24 SW 2.46 SW 2.68 SW No 0.000 No Precipitation 09/21/2022 03:36 PM 09/21/2022 03:41 PM 0.000 0.000 0.000 0.000 0.000 3.36 Clear
09/30/2022 11:29 PM 67.46 58.64 52.52 91.58 58.64 59.0 Not Reported 3.58 SW 3.58 SW 4.03 SW No 0.000 No Precipitation 09/21/2022 03:36 PM 09/21/2022 03:41 PM 0.000 0.000 0.000 0.000 0.000 3.40 Clear
09/30/2022 11:44 PM 66.74 58.46 52.88 91.58 58.64 61.0 Not Reported 1.34 SW 0.89 SW 2.68 SW No 0.000 No Precipitation 09/21/2022 03:36 PM 09/21/2022 03:41 PM 0.000 0.000 0.000 0.000 0.000 3.32 Clear
09/30/2022 11:59 PM 66.20 58.10 52.70 91.58 58.64 62.0 Not Reported 1.34 S 1.12 S 2.01 SW No 0.000 No Precipitation 09/21/2022 03:36 PM 09/21/2022 03:41 PM 0.000 0.000 0.000 0.000 0.000 3.23 Clear